Airfield :
LOGIN :

Register | Disclaimer

   EN    FR    IT 

 










Legend :    VFR   Marginal VFR   IFR   Intensive IFR   Very Intensive IFR
Visi :
Ceiling :
>= 8 km
>= 3000ft
5 to 8 km
1000 to 3000 ft
1500m to 5 km
500 to 1000 ft
800 to 1500m
200 to 500 ft
< 800m
< 200 ft
Symbols :   Thunderstorms  Fog  Heavy snow  Heavy precipitations  Wind > 20 kt
SIGMETs :     Misc.  Thunderstorms  Icing  Turbulence  Mountain Waves  Volcanic Ashes







- Airport Elevation : 146 ft
- IATA code : RKE


EKRK - Roskilde Tune

CURRENT METAR :
  • 152250Z AUTO 15013KT 9999NDV -RA FEW008/// SCT019/// BKN032/// BKN043/// 02/00 Q1024

EXPIRED METARs :
  • 152220Z AUTO 14015KT 9999NDV FEW018/// SCT023/// OVC028/// 02/M01 Q1024
  • 152150Z AUTO 14013KT 9999NDV FEW012/// SCT023/// BKN032/// 02/M00 Q1024
  • 152120Z AUTO 12010KT 090V150 9999NDV -SHRA FEW004/// SCT009/// BKN013/// BKN028/// 02/01 Q1025
  • 152050Z AUTO 13005KT 5000NDV -SHRA FEW003/// SCT010/// BKN017/// OVC047/// 01/01 Q1025
  • 152020Z AUTO 13007KT 9999NDV -SHRA FEW003/// SCT020/// BKN029/// BKN033/// 01/01 Q1025

TAF TAF EKRK
Valid from the 15 at 21:00 until the 16 at 06:00 UTC


152022Z 1521/1606 15008KT 9999 SCT008 BKN020
TEMPO 1521/1606 3000 -SHSNRA BKN006 BKN012TCU
No reported NOTAMs for that airfield.



MET'MAP, your aeronautical weather chart ! - Copyright ORBIFLY December 2007 - Disclaimer

ORBIFLY MET'MAP TEAM :

Programming & Development : Alexandra Zaïnal
Concept & Development : Baudouin d'Aumeries
Co-Development & Prog : Marc-Olivier Méhu
Technical & hardware support : Manuel Goepfert

Contact : metmap@orbifly.com




SOURCES & CREDITS :

   NOAA